Time;durP1;ratioP1;P1;durP2;ratioP2;P2;SDS_P1;SDS_P2;PMS_P1;PMS_P2;Temp;Humidity;BMP_temperature;BMP_pressure;BME280_temperature;BME280_humidity;BME280_pressure;Samples;Min_cycle;Max_cycle;Signal;HPM_P1;HPM_P2
2022/12/06 00:02:29;;;;;;;6.72;1.80;;;24.00;99.90;;;;;;5062166;28;20243;-84
2022/12/06 00:05:00;;;;;;;3.17;1.80;;;24.00;99.90;;;;;;5055198;28;20228;-82
2022/12/06 00:07:31;;;;;;;5.72;1.60;;;24.10;99.90;;;;;;5069069;28;20256;-84
2022/12/06 00:10:03;;;;;;;2.95;1.30;;;24.10;99.90;;;;;;5062130;28;20197;-84
2022/12/06 00:12:34;;;;;;;4.78;1.60;;;24.10;99.90;;;;;;5067557;28;20216;-87
2022/12/06 00:15:07;;;;;;;2.30;1.20;;;24.30;99.90;;;;;;5073725;28;20216;-83
2022/12/06 00:17:38;;;;;;;3.22;1.30;;;24.20;99.90;;;;;;5068680;28;20185;-83
2022/12/06 00:20:10;;;;;;;3.47;1.23;;;24.20;99.90;;;;;;5065530;28;20641;-83
2022/12/06 00:22:47;;;;;;;5.45;1.48;;;24.30;99.90;;;;;;5059188;28;20196;-86
2022/12/06 00:25:18;;;;;;;2.65;1.20;;;24.40;99.90;;;;;;5061847;28;20243;-84
2022/12/06 00:27:49;;;;;;;2.95;1.02;;;24.50;99.90;;;;;;5060480;28;20242;-84
2022/12/06 00:30:24;;;;;;;2.45;1.00;;;24.30;99.90;;;;;;5067458;28;20218;-85
2022/12/06 00:32:55;;;;;;;2.03;1.00;;;24.40;99.90;;;;;;5057913;28;20214;-85
2022/12/06 00:35:26;;;;;;;4.13;1.13;;;24.50;99.90;;;;;;5066115;28;20243;-84
2022/12/06 00:37:56;;;;;;;2.92;1.15;;;24.60;99.90;;;;;;5056318;28;20181;-76
2022/12/06 00:40:27;;;;;;;3.30;1.10;;;24.30;99.90;;;;;;5070625;28;20189;-84
2022/12/06 00:42:58;;;;;;;3.50;1.00;;;24.30;99.90;;;;;;5055250;28;20255;-84
2022/12/06 00:45:31;;;;;;;2.65;1.00;;;24.30;99.90;;;;;;5062655;28;20239;-85
2022/12/06 00:48:02;;;;;;;3.75;0.95;;;24.10;99.90;;;;;;5060853;28;20228;-84
2022/12/06 00:50:33;;;;;;;2.03;0.93;;;24.00;99.90;;;;;;5067106;28;20240;-83
2022/12/06 00:53:04;;;;;;;2.10;0.80;;;24.10;99.90;;;;;;5064059;28;20185;-86
2022/12/06 00:55:35;;;;;;;2.80;1.00;;;24.10;99.90;;;;;;5064020;28;20239;-83
2022/12/06 00:58:05;;;;;;;1.63;0.80;;;24.10;99.90;;;;;;5065210;28;20225;-86
2022/12/06 01:00:38;;;;;;;2.78;1.00;;;24.30;99.90;;;;;;5061178;28;20259;-86
2022/12/06 01:03:09;;;;;;;2.05;0.77;;;24.30;99.90;;;;;;5069474;28;20229;-83
2022/12/06 01:05:44;;;;;;;3.88;1.00;;;24.20;99.90;;;;;;5067256;28;20307;-85
2022/12/06 01:08:15;;;;;;;3.15;1.20;;;24.20;99.90;;;;;;5068331;28;20649;-89
2022/12/06 01:10:54;;;;;;;5.20;1.60;;;24.40;99.90;;;;;;5063384;28;20280;-85
2022/12/06 01:13:25;;;;;;;3.65;1.25;;;24.50;99.90;;;;;;5066521;28;20188;-87
2022/12/06 01:15:57;;;;;;;3.70;1.30;;;24.60;99.90;;;;;;5063472;28;20189;-85
2022/12/06 01:18:28;;;;;;;2.97;1.30;;;24.50;99.90;;;;;;5067263;28;20190;-85
2022/12/06 01:20:59;;;;;;;5.53;1.73;;;24.50;99.90;;;;;;5061637;28;20229;-86
2022/12/06 01:23:30;;;;;;;3.33;1.30;;;24.60;99.90;;;;;;5066821;28;20201;-85
2022/12/06 01:26:01;;;;;;;3.67;1.40;;;24.60;99.90;;;;;;5067931;28;20221;-86
2022/12/06 01:28:32;;;;;;;2.72;1.30;;;24.60;99.90;;;;;;5070840;28;20203;-85
2022/12/06 01:31:09;;;;;;;3.53;1.52;;;24.60;99.90;;;;;;5064785;28;20652;-83
2022/12/06 01:33:40;;;;;;;8.98;2.30;;;24.60;99.90;;;;;;5063963;28;20557;-82
2022/12/06 01:36:16;;;;;;;2.85;1.35;;;24.60;99.90;;;;;;5066348;28;20224;-84
2022/12/06 01:38:52;;;;;;;5.07;1.70;;;24.70;99.90;;;;;;5070443;28;20200;-84
2022/12/06 01:41:25;;;;;;;2.67;1.30;;;25.00;99.90;;;;;;5072697;28;20199;-82
2022/12/06 01:43:56;;;;;;;3.97;1.20;;;24.40;99.90;;;;;;5072173;28;20651;-84
2022/12/06 01:46:35;;;;;;;6.40;1.35;;;24.20;99.90;;;;;;5072571;28;20690;-82
2022/12/06 01:49:23;;;;;;;3.33;1.30;;;24.20;99.90;;;;;;5068644;28;20567;-79
2022/12/06 01:51:57;;;;;;;4.65;1.30;;;24.40;99.90;;;;;;5075375;28;20189;-85
2022/12/06 01:54:29;;;;;;;2.88;1.23;;;24.40;99.90;;;;;;5073252;28;20188;-85
2022/12/06 01:57:02;;;;;;;4.13;1.30;;;24.50;99.90;;;;;;5074231;28;20195;-87
2022/12/06 01:59:33;;;;;;;3.42;1.30;;;24.50;99.90;;;;;;5072460;28;20185;-82
2022/12/06 02:02:06;;;;;;;3.13;1.27;;;24.60;99.90;;;;;;5075417;28;20195;-84
2022/12/06 02:04:37;;;;;;;5.40;1.52;;;24.50;99.90;;;;;;5075786;28;20224;-85
2022/12/06 02:07:09;;;;;;;6.15;1.48;;;24.60;99.90;;;;;;5073849;28;20242;-82
2022/12/06 02:09:40;;;;;;;3.20;1.40;;;24.70;99.90;;;;;;5074193;28;20191;-82
2022/12/06 02:12:16;;;;;;;3.42;1.30;;;24.80;99.90;;;;;;5074034;28;20181;-84
2022/12/06 02:14:50;;;;;;;3.75;1.38;;;24.50;99.90;;;;;;5074616;28;20181;-81
2022/12/06 02:17:32;;;;;;;3.72;1.77;;;24.30;99.90;;;;;;5074378;28;20189;-83
2022/12/06 02:20:26;;;;;;;3.20;1.63;;;24.20;99.90;;;;;;5074010;28;20235;-80
2022/12/06 02:23:31;;;;;;;4.72;1.40;;;24.20;99.90;;;;;;5073711;28;20271;-83
2022/12/06 02:26:25;;;;;;;3.53;1.17;;;24.00;99.90;;;;;;5074133;28;20583;-89
2022/12/06 02:29:27;;;;;;;3.17;1.00;;;24.00;99.90;;;;;;5075471;28;20193;-83
2022/12/06 02:32:02;;;;;;;3.50;0.90;;;23.90;99.90;;;;;;5074309;28;20254;-90
2022/12/06 02:34:39;;;;;;;1.40;0.90;;;24.00;99.90;;;;;;5074679;28;20549;-84
2022/12/06 02:37:15;;;;;;;4.70;1.02;;;24.00;99.90;;;;;;5068716;28;20189;-81
2022/12/06 02:39:51;;;;;;;3.10;0.90;;;24.10;99.90;;;;;;5072064;28;20189;-87
2022/12/06 02:42:24;;;;;;;4.10;0.90;;;24.20;99.90;;;;;;5072135;28;20192;-85
2022/12/06 02:44:57;;;;;;;2.03;0.70;;;24.20;99.90;;;;;;5072878;28;20189;-83
2022/12/06 02:47:35;;;;;;;2.15;0.60;;;24.30;99.90;;;;;;5071045;28;20209;-85
2022/12/06 02:50:10;;;;;;;2.63;0.75;;;24.20;99.90;;;;;;5071154;28;20189;-83
2022/12/06 02:52:45;;;;;;;2.60;0.55;;;24.10;99.90;;;;;;5074294;28;20184;-82
2022/12/06 02:55:17;;;;;;;2.53;0.50;;;24.10;99.90;;;;;;5072939;28;20655;-82
2022/12/06 02:57:49;;;;;;;1.90;0.40;;;24.20;99.90;;;;;;5074902;28;20185;-82
2022/12/06 03:00:35;;;;;;;1.08;0.45;;;24.00;99.90;;;;;;5075079;28;20193;-82
2022/12/06 03:03:29;;;;;;;3.85;0.70;;;23.80;99.90;;;;;;5072811;28;20213;-79
2022/12/06 03:06:38;;;;;;;2.72;0.50;;;23.80;99.90;;;;;;5065438;28;20195;-82
2022/12/06 03:09:21;;;;;;;2.80;0.88;;;23.60;99.90;;;;;;5065487;28;20193;-82
2022/12/06 03:11:58;;;;;;;1.55;0.38;;;23.40;99.90;;;;;;5071932;28;20192;-83
2022/12/06 03:14:34;;;;;;;1.05;0.38;;;23.40;99.90;;;;;;5069150;28;20189;-81
2022/12/06 03:17:11;;;;;;;1.50;0.40;;;23.30;99.90;;;;;;5071204;28;20196;-82
2022/12/06 03:19:50;;;;;;;1.73;0.40;;;23.30;99.90;;;;;;5070943;28;20232;-80
2022/12/06 03:22:25;;;;;;;1.23;0.32;;;23.40;99.90;;;;;;5073794;28;20675;-82
2022/12/06 03:25:00;;;;;;;1.35;0.20;;;23.30;99.90;;;;;;5073355;28;20184;-83
2022/12/06 03:27:32;;;;;;;1.20;0.40;;;23.30;99.90;;;;;;5071276;28;20231;-82
2022/12/06 03:30:07;;;;;;;1.55;0.40;;;23.10;99.90;;;;;;5073536;28;20189;-84
2022/12/06 03:32:39;;;;;;;2.28;0.45;;;23.10;99.90;;;;;;5070200;28;20659;-82
2022/12/06 03:35:21;;;;;;;1.45;0.30;;;23.00;99.90;;;;;;5069319;28;20197;-82
2022/12/06 03:38:07;;;;;;;5.97;0.65;;;23.10;99.90;;;;;;5069977;28;20192;-82
2022/12/06 03:40:41;;;;;;;2.42;0.50;;;23.00;99.90;;;;;;5073224;28;20188;-83
2022/12/06 03:43:13;;;;;;;2.47;0.50;;;23.00;99.90;;;;;;5068074;28;20192;-81
2022/12/06 03:45:48;;;;;;;2.10;0.40;;;23.10;99.90;;;;;;5071706;28;20196;-85
2022/12/06 03:48:23;;;;;;;1.55;0.40;;;23.10;99.90;;;;;;5072169;28;20208;-82
2022/12/06 03:51:00;;;;;;;2.92;0.50;;;23.10;99.90;;;;;;5067961;28;20317;-83
2022/12/06 03:53:31;;;;;;;5.35;0.50;;;23.10;99.90;;;;;;5068494;28;20197;-82
2022/12/06 03:56:02;;;;;;;2.42;0.43;;;23.10;99.90;;;;;;5071467;28;20296;-83
2022/12/06 03:58:36;;;;;;;2.88;0.47;;;22.90;99.90;;;;;;5072654;28;20185;-83
2022/12/06 04:01:07;;;;;;;5.05;0.70;;;22.90;99.90;;;;;;5065818;28;20193;-81
2022/12/06 04:03:39;;;;;;;2.38;0.50;;;22.80;99.90;;;;;;5064274;28;20193;-81
2022/12/06 04:06:12;;;;;;;1.73;0.47;;;22.80;99.90;;;;;;5065774;28;20276;-81
2022/12/06 04:08:43;;;;;;;2.42;0.50;;;22.70;99.90;;;;;;5071533;28;20192;-81
2022/12/06 04:11:14;;;;;;;2.03;0.40;;;22.70;99.90;;;;;;5069623;28;20202;-88
2022/12/06 04:13:45;;;;;;;3.67;0.50;;;22.80;99.90;;;;;;5070040;28;20648;-83
2022/12/06 04:19:02;;;;;;;2.33;0.43;;;22.70;99.90;;;;;;5071876;28;20215;-84
2022/12/06 04:24:21;;;;;;;1.80;0.50;;;22.80;99.90;;;;;;5069615;28;20227;-80
2022/12/06 04:28:40;;;;;;;3.30;0.90;;;22.80;99.90;;;;;;5069379;28;20676;-82
2022/12/06 04:40:51;;;;;;;2.33;0.60;;;22.70;99.90;;;;;;5068140;28;20556;-83
2022/12/06 04:46:08;;;;;;;2.95;0.70;;;22.60;99.90;;;;;;5065389;28;20200;-83
2022/12/06 04:48:39;;;;;;;3.35;0.50;;;22.70;99.90;;;;;;5071247;28;20276;-82
2022/12/06 04:51:11;;;;;;;3.75;0.60;;;22.80;99.90;;;;;;5071230;28;20197;-83
2022/12/06 04:53:45;;;;;;;3.90;0.70;;;22.80;99.90;;;;;;5070241;28;20192;-83
2022/12/06 04:56:15;;;;;;;1.35;0.40;;;22.60;99.90;;;;;;5069896;28;20222;-84
2022/12/06 04:58:46;;;;;;;2.53;0.50;;;22.50;99.90;;;;;;5071761;28;20192;-83
2022/12/06 05:01:17;;;;;;;1.08;0.38;;;22.60;99.90;;;;;;5064937;28;20193;-81
2022/12/06 05:03:48;;;;;;;2.45;0.50;;;22.40;99.90;;;;;;5069200;28;20185;-87
2022/12/06 05:06:19;;;;;;;4.57;0.77;;;22.50;99.90;;;;;;5066842;28;20223;-85
2022/12/06 05:08:52;;;;;;;6.97;0.80;;;22.50;99.90;;;;;;5068330;28;20230;-84
2022/12/06 05:11:22;;;;;;;3.75;0.57;;;22.50;99.90;;;;;;5064644;28;20201;-83
2022/12/06 05:13:53;;;;;;;3.00;0.47;;;22.50;99.90;;;;;;5071384;28;20644;-84
2022/12/06 05:16:24;;;;;;;3.28;0.60;;;22.50;99.90;;;;;;5067598;28;20657;-84
2022/12/06 05:18:55;;;;;;;1.08;0.40;;;22.40;99.90;;;;;;5068584;28;20202;-82
2022/12/06 05:21:26;;;;;;;3.92;0.50;;;22.50;99.90;;;;;;5068750;28;20247;-82
2022/12/06 05:24:02;;;;;;;2.97;0.70;;;22.20;99.90;;;;;;5070130;28;20194;-86
2022/12/06 05:26:32;;;;;;;4.75;0.73;;;22.30;99.90;;;;;;5071597;28;20217;-84
2022/12/06 05:29:03;;;;;;;2.97;0.60;;;22.20;99.90;;;;;;5067706;28;20189;-82
2022/12/06 05:31:34;;;;;;;3.40;0.90;;;22.10;99.90;;;;;;5069390;28;20200;-82
2022/12/06 05:34:05;;;;;;;2.72;0.77;;;21.90;99.90;;;;;;5066949;28;20195;-82
2022/12/06 05:36:35;;;;;;;5.43;0.95;;;22.00;99.90;;;;;;5068565;28;20197;-84
2022/12/06 05:39:08;;;;;;;4.65;0.63;;;22.00;99.90;;;;;;5070773;28;20201;-82
2022/12/06 05:41:39;;;;;;;2.58;0.70;;;22.00;99.90;;;;;;5069595;28;20208;-78
2022/12/06 05:44:12;;;;;;;2.20;0.75;;;21.90;99.90;;;;;;5067502;28;20189;-82
2022/12/06 05:46:42;;;;;;;3.22;0.60;;;21.80;99.90;;;;;;5065086;28;20198;-81
2022/12/06 05:49:13;;;;;;;6.13;0.70;;;21.70;99.90;;;;;;5068207;28;20200;-81
2022/12/06 05:51:44;;;;;;;4.90;0.80;;;21.80;99.90;;;;;;5070917;28;20200;-82
2022/12/06 05:54:17;;;;;;;3.45;0.52;;;21.90;99.90;;;;;;5070932;28;20235;-82
2022/12/06 05:56:48;;;;;;;3.40;0.70;;;22.00;99.90;;;;;;5071044;28;20192;-83
2022/12/06 05:59:19;;;;;;;3.30;0.80;;;22.00;99.90;;;;;;5071079;28;20275;-86
2022/12/06 06:01:49;;;;;;;4.57;0.77;;;22.10;99.90;;;;;;5071550;28;20197;-82
2022/12/06 06:04:20;;;;;;;3.90;0.70;;;22.10;99.90;;;;;;5070897;28;20188;-85
2022/12/06 06:06:51;;;;;;;5.07;0.90;;;22.00;99.90;;;;;;5071215;28;20240;-84
2022/12/06 06:09:26;;;;;;;4.32;0.50;;;22.00;99.90;;;;;;5071219;28;20661;-84
2022/12/06 06:11:57;;;;;;;3.00;0.77;;;21.70;99.90;;;;;;5071060;28;20268;-82
2022/12/06 06:14:28;;;;;;;2.08;0.63;;;21.50;99.90;;;;;;5071013;28;20185;-82
2022/12/06 06:16:58;;;;;;;5.03;0.75;;;21.60;99.90;;;;;;5069167;28;20682;-83
2022/12/06 06:19:29;;;;;;;4.55;0.80;;;21.70;99.90;;;;;;5061705;28;20197;-81
2022/12/06 06:22:00;;;;;;;4.55;0.80;;;21.70;99.90;;;;;;5070273;28;20276;-85
2022/12/06 06:24:37;;;;;;;2.00;0.70;;;21.50;99.90;;;;;;5067116;28;20200;-82
2022/12/06 06:27:09;;;;;;;5.28;0.80;;;21.50;99.90;;;;;;5073734;28;20576;-82
2022/12/06 06:29:39;;;;;;;4.25;0.70;;;21.50;99.90;;;;;;5070966;28;20197;-82
2022/12/06 06:32:11;;;;;;;3.90;0.90;;;21.50;99.90;;;;;;5067920;28;20188;-82
2022/12/06 06:34:42;;;;;;;5.95;0.95;;;21.60;99.90;;;;;;5066104;28;20298;-82
2022/12/06 06:37:12;;;;;;;5.10;0.80;;;21.60;99.90;;;;;;5067126;28;20193;-81
2022/12/06 06:39:46;;;;;;;4.95;0.80;;;21.50;99.90;;;;;;5067506;28;20193;-85
2022/12/06 06:42:16;;;;;;;4.63;0.80;;;21.30;99.90;;;;;;5064618;28;20197;-81
2022/12/06 06:44:47;;;;;;;3.50;0.80;;;21.30;99.90;;;;;;5065821;28;20204;-83
2022/12/06 06:47:18;;;;;;;3.97;0.73;;;21.40;99.90;;;;;;5065021;28;20213;-83
2022/12/06 06:49:49;;;;;;;2.42;0.70;;;21.30;99.90;;;;;;5067280;28;20208;-81
2022/12/06 06:52:20;;;;;;;5.88;0.80;;;21.20;99.90;;;;;;5073757;28;20197;-81
2022/12/06 06:54:52;;;;;;;4.00;0.60;;;21.20;99.90;;;;;;5074202;28;20268;-81
2022/12/06 06:57:23;;;;;;;6.82;1.45;;;21.30;99.90;;;;;;5069472;28;20581;-81
2022/12/06 06:59:55;;;;;;;3.22;0.85;;;21.30;99.90;;;;;;5066977;28;20690;-81
2022/12/06 07:02:26;;;;;;;4.75;1.00;;;21.20;99.90;;;;;;5070349;28;20196;-83
2022/12/06 07:04:57;;;;;;;5.35;0.80;;;21.30;99.90;;;;;;5071964;28;20661;-82
2022/12/06 07:07:28;;;;;;;4.68;0.90;;;21.30;99.90;;;;;;5070959;28;20613;-83
2022/12/06 07:10:03;;;;;;;2.22;0.73;;;21.30;99.90;;;;;;5071298;28;20275;-82
2022/12/06 07:12:34;;;;;;;4.72;0.75;;;21.30;99.90;;;;;;5070090;28;20196;-83
2022/12/06 07:15:05;;;;;;;4.13;0.90;;;21.20;99.90;;;;;;5072556;28;20946;-82
2022/12/06 07:17:36;;;;;;;8.10;0.85;;;21.30;99.90;;;;;;5069415;28;20250;-81
2022/12/06 07:20:07;;;;;;;1.88;0.60;;;21.30;99.90;;;;;;5070582;28;20236;-82
2022/12/06 07:22:38;;;;;;;5.50;0.93;;;21.20;99.90;;;;;;5068685;28;20197;-84
2022/12/06 07:25:11;;;;;;;2.60;0.77;;;21.20;99.90;;;;;;5068654;28;20207;-83
2022/12/06 07:27:42;;;;;;;4.38;0.77;;;21.10;99.90;;;;;;5071747;28;20212;-84
2022/12/06 07:30:13;;;;;;;2.15;0.60;;;21.00;99.90;;;;;;5069804;28;20564;-82
2022/12/06 07:32:44;;;;;;;4.40;0.70;;;20.80;99.90;;;;;;5068031;28;20542;-81
2022/12/06 07:35:15;;;;;;;3.13;0.85;;;20.70;99.90;;;;;;5069625;28;20197;-82
2022/12/06 07:37:46;;;;;;;3.45;1.00;;;20.60;99.90;;;;;;5070429;28;20207;-84
2022/12/06 07:40:20;;;;;;;2.35;0.70;;;20.50;99.90;;;;;;5070858;28;20197;-82
2022/12/06 07:45:39;;;;;;;3.75;0.70;;;20.30;99.90;;;;;;5070955;28;20739;-83
2022/12/06 07:48:10;;;;;;;4.60;0.98;;;20.30;99.90;;;;;;5065931;28;20219;-82
2022/12/06 07:50:41;;;;;;;6.20;1.10;;;20.30;99.90;;;;;;5067225;28;20201;-81
2022/12/06 07:53:11;;;;;;;6.50;1.27;;;20.30;99.90;;;;;;5068687;28;20197;-81
2022/12/06 07:55:44;;;;;;;6.22;0.90;;;20.30;99.90;;;;;;5070706;28;20191;-81
2022/12/06 07:58:15;;;;;;;5.07;0.80;;;20.30;99.90;;;;;;5068787;28;20279;-81
2022/12/06 08:00:45;;;;;;;6.90;0.90;;;20.20;99.90;;;;;;5072195;28;20268;-82
2022/12/06 08:03:16;;;;;;;2.85;0.80;;;20.10;99.90;;;;;;5071352;28;20648;-82
2022/12/06 08:05:56;;;;;;;3.72;0.70;;;20.10;99.90;;;;;;5071840;28;20655;-82
2022/12/06 08:08:27;;;;;;;3.15;0.70;;;20.00;99.90;;;;;;5071943;28;20212;-81
2022/12/06 08:11:01;;;;;;;4.88;0.75;;;19.90;99.90;;;;;;5071763;28;20219;-83
2022/12/06 08:13:32;;;;;;;2.95;0.65;;;19.90;99.90;;;;;;5069320;28;20219;-81
2022/12/06 08:16:06;;;;;;;6.25;0.73;;;19.80;99.90;;;;;;5067888;28;20190;-83
2022/12/06 08:18:37;;;;;;;6.07;0.90;;;19.80;99.90;;;;;;5071060;28;20203;-81
2022/12/06 08:21:08;;;;;;;6.70;0.85;;;19.80;99.90;;;;;;5068630;28;20228;-82
2022/12/06 08:23:39;;;;;;;7.10;1.08;;;19.80;99.90;;;;;;5069661;28;20221;-83
2022/12/06 08:26:14;;;;;;;5.53;1.10;;;19.80;99.90;;;;;;5066028;28;20204;-82
2022/12/06 08:28:45;;;;;;;6.75;1.00;;;19.80;99.90;;;;;;5068416;28;20214;-83
2022/12/06 08:31:17;;;;;;;6.38;1.05;;;19.80;99.90;;;;;;5071336;28;20189;-81
2022/12/06 08:33:48;;;;;;;4.28;0.98;;;19.80;99.90;;;;;;5068412;28;20193;-82
2022/12/06 08:36:21;;;;;;;5.57;1.27;;;19.80;99.90;;;;;;5066463;28;20194;-83
2022/12/06 08:38:53;;;;;;;4.18;0.93;;;19.80;99.90;;;;;;5068068;28;20615;-84
2022/12/06 08:44:16;;;;;;;5.55;0.88;;;19.70;99.90;;;;;;5069782;28;20203;-82
2022/12/06 08:46:48;;;;;;;4.93;1.17;;;19.60;99.90;;;;;;5067441;28;20197;-83
2022/12/06 08:49:19;;;;;;;5.43;1.00;;;19.60;99.90;;;;;;5068398;28;20209;-82
2022/12/06 08:51:50;;;;;;;4.72;1.00;;;19.60;99.90;;;;;;5068983;28;20279;-83
2022/12/06 08:54:23;;;;;;;5.13;1.20;;;19.60;99.90;;;;;;5069672;28;20200;-83
2022/12/06 08:56:56;;;;;;;5.57;1.25;;;19.60;99.90;;;;;;5070608;28;20550;-85
2022/12/06 08:59:27;;;;;;;4.93;1.45;;;19.60;99.90;;;;;;5071140;28;20193;-81
2022/12/06 09:01:58;;;;;;;7.13;1.27;;;19.60;99.90;;;;;;5069268;28;20196;-81
2022/12/06 09:04:29;;;;;;;7.70;1.17;;;19.60;99.90;;;;;;5068742;28;20555;-82
2022/12/06 09:07:00;;;;;;;5.15;1.20;;;19.60;99.90;;;;;;5065659;28;20227;-81
2022/12/06 09:09:31;;;;;;;5.28;1.23;;;19.60;99.90;;;;;;5069246;28;20295;-82
2022/12/06 09:12:03;;;;;;;7.40;1.30;;;19.50;99.90;;;;;;5069644;28;20227;-82
2022/12/06 09:14:34;;;;;;;6.38;1.33;;;19.50;99.90;;;;;;5061839;28;20193;-82
2022/12/06 09:17:06;;;;;;;4.55;0.90;;;19.40;99.90;;;;;;5062462;28;20202;-83
2022/12/06 09:19:36;;;;;;;7.38;1.35;;;19.40;99.90;;;;;;5068603;28;20276;-83
2022/12/06 09:22:07;;;;;;;6.68;1.10;;;19.40;99.90;;;;;;5062071;28;20681;-81
2022/12/06 09:24:38;;;;;;;7.10;1.20;;;19.30;99.90;;;;;;5063886;28;20226;-81
2022/12/06 09:27:11;;;;;;;4.70;1.10;;;19.30;99.90;;;;;;5062225;28;20190;-82
2022/12/06 09:29:42;;;;;;;5.85;1.20;;;19.30;99.90;;;;;;5069493;28;20221;-83
2022/12/06 09:32:12;;;;;;;5.68;1.20;;;19.20;99.90;;;;;;5065606;28;20193;-83
2022/12/06 09:34:43;;;;;;;10.93;1.17;;;19.20;99.90;;;;;;5067461;28;20200;-84
2022/12/06 09:37:15;;;;;;;7.97;1.20;;;19.20;99.90;;;;;;5061293;28;20697;-82
2022/12/06 09:39:48;;;;;;;6.82;1.10;;;19.20;99.90;;;;;;5063071;28;20197;-83
2022/12/06 09:42:47;;;;;;;10.40;1.40;;;19.20;99.90;;;;;;5064350;28;20596;-84
2022/12/06 09:45:41;;;;;;;43.50;27.75;;;19.20;99.90;;;;;;5062779;28;20200;-81
2022/12/06 09:48:29;;;;;;;23.15;13.27;;;19.20;99.90;;;;;;5060071;28;20559;-81
2022/12/06 09:51:08;;;;;;;7.88;1.80;;;19.20;99.90;;;;;;5060473;28;20188;-82
2022/12/06 09:53:51;;;;;;;7.05;1.10;;;19.20;99.90;;;;;;5067914;28;20196;-82
2022/12/06 09:56:28;;;;;;;7.00;0.98;;;19.10;99.90;;;;;;5064016;28;20283;-83
2022/12/06 09:59:15;;;;;;;6.53;1.10;;;19.10;99.90;;;;;;5062011;28;20274;-82
2022/12/06 10:02:03;;;;;;;6.00;1.40;;;19.10;99.90;;;;;;5056618;28;20201;-82
2022/12/06 10:04:59;;;;;;;7.85;1.08;;;19.00;99.90;;;;;;5061256;28;20284;-81
2022/12/06 10:07:40;;;;;;;6.88;1.40;;;19.00;99.90;;;;;;5069476;28;20231;-80
2022/12/06 10:10:21;;;;;;;6.97;1.27;;;18.90;99.90;;;;;;5060183;28;20580;-81
2022/12/06 10:13:06;;;;;;;5.43;0.95;;;18.90;99.90;;;;;;5067810;28;20189;-81
2022/12/06 10:15:53;;;;;;;4.15;1.08;;;18.90;99.90;;;;;;5061871;28;20196;-81
2022/12/06 10:18:35;;;;;;;3.10;1.02;;;18.90;99.90;;;;;;5068578;28;20209;-82
2022/12/06 10:21:18;;;;;;;7.18;1.30;;;18.90;99.90;;;;;;5069813;28;20592;-81
2022/12/06 10:24:02;;;;;;;4.53;0.80;;;18.80;99.90;;;;;;5065450;28;20194;-81
2022/12/06 10:26:41;;;;;;;4.53;1.10;;;18.80;99.90;;;;;;5058926;28;20197;-82
2022/12/06 10:29:21;;;;;;;7.07;1.02;;;18.80;99.90;;;;;;5069197;28;20219;-82
2022/12/06 10:31:59;;;;;;;4.47;1.30;;;18.80;99.90;;;;;;5065463;28;20193;-82
2022/12/06 10:34:51;;;;;;;6.90;1.25;;;18.80;99.90;;;;;;5066819;28;20280;-80
2022/12/06 10:37:33;;;;;;;5.90;0.88;;;18.80;99.90;;;;;;5067677;28;20193;-82
2022/12/06 10:40:09;;;;;;;4.78;1.00;;;18.80;99.90;;;;;;5062040;28;20269;-83
2022/12/06 10:42:43;;;;;;;5.88;1.00;;;18.80;99.90;;;;;;5067259;28;20193;-82
2022/12/06 10:48:20;;;;;;;5.65;1.20;;;18.80;99.90;;;;;;5069372;28;20199;-82
2022/12/06 10:50:58;;;;;;;4.50;0.80;;;18.70;99.90;;;;;;5064585;28;20192;-82
2022/12/06 10:53:34;;;;;;;8.90;0.90;;;18.70;99.90;;;;;;5073974;28;20659;-82
2022/12/06 10:56:09;;;;;;;8.05;1.20;;;18.70;99.90;;;;;;5073117;28;20192;-82
2022/12/06 10:58:45;;;;;;;19.50;11.00;;;18.70;99.90;;;;;;5073035;28;20192;-82
2022/12/06 11:01:20;;;;;;;30.00;15.90;;;18.70;99.90;;;;;;5068256;28;20189;-80
2022/12/06 11:03:59;;;;;;;6.72;2.05;;;18.70;99.90;;;;;;5066561;28;20192;-81
2022/12/06 11:06:35;;;;;;;5.93;1.55;;;18.70;99.90;;;;;;5067086;28;20213;-82
2022/12/06 11:09:18;;;;;;;4.60;1.30;;;18.70;99.90;;;;;;5065266;28;20556;-82
2022/12/06 11:11:52;;;;;;;9.48;1.42;;;18.70;99.90;;;;;;5068008;28;20185;-82
2022/12/06 11:14:28;;;;;;;6.45;1.10;;;18.60;99.90;;;;;;5067571;28;20200;-82
2022/12/06 11:17:05;;;;;;;3.10;1.00;;;18.60;99.90;;;;;;5070469;28;20231;-82
2022/12/06 11:19:40;;;;;;;5.13;0.93;;;18.60;99.90;;;;;;5055324;28;20239;-81
2022/12/06 11:22:21;;;;;;;4.15;1.17;;;18.60;99.90;;;;;;5057838;28;20680;-83
2022/12/06 11:24:58;;;;;;;5.90;0.93;;;18.60;99.90;;;;;;5063193;28;20640;-82
2022/12/06 11:27:33;;;;;;;5.00;0.90;;;18.60;99.90;;;;;;5060514;28;20193;-82
2022/12/06 11:30:06;;;;;;;4.15;1.00;;;18.60;99.90;;;;;;5066259;28;20205;-82
2022/12/06 11:32:36;;;;;;;8.55;1.23;;;18.60;99.90;;;;;;5055270;28;20533;-82
2022/12/06 11:35:16;;;;;;;6.40;1.20;;;18.60;99.90;;;;;;5063364;28;20564;-82
2022/12/06 11:37:48;;;;;;;4.32;0.90;;;18.60;99.90;;;;;;5065656;28;20200;-81
2022/12/06 11:40:26;;;;;;;4.60;1.30;;;18.60;99.90;;;;;;5066898;28;20609;-82
2022/12/06 11:42:57;;;;;;;4.28;0.93;;;18.60;99.90;;;;;;5065766;28;20231;-81
2022/12/06 11:45:31;;;;;;;4.65;1.08;;;18.60;99.90;;;;;;5066726;28;20197;-82
2022/12/06 11:48:03;;;;;;;7.15;1.10;;;18.70;99.90;;;;;;5065789;28;20560;-82
2022/12/06 11:50:37;;;;;;;4.93;0.98;;;18.70;99.90;;;;;;5072851;28;20217;-81
2022/12/06 11:53:15;;;;;;;4.05;0.90;;;18.70;99.90;;;;;;5073060;28;20184;-81
2022/12/06 11:55:48;;;;;;;3.25;1.13;;;18.70;99.90;;;;;;5065044;28;20192;-81
2022/12/06 11:58:26;;;;;;;5.28;1.10;;;18.80;99.90;;;;;;5063176;28;20276;-81
2022/12/06 12:01:03;;;;;;;4.20;1.00;;;18.80;99.90;;;;;;5066790;28;20575;-80
2022/12/06 12:03:37;;;;;;;6.18;1.08;;;18.80;99.90;;;;;;5065292;28;20224;-80
2022/12/06 12:06:25;;;;;;;3.92;0.98;;;18.80;99.90;;;;;;5065671;28;20212;-80
2022/12/06 12:08:59;;;;;;;7.70;1.30;;;18.80;99.90;;;;;;5059301;28;20212;-81
2022/12/06 12:11:33;;;;;;;5.05;0.90;;;18.90;99.90;;;;;;5073281;28;20674;-81
2022/12/06 12:14:06;;;;;;;4.72;1.10;;;18.90;99.90;;;;;;5065540;28;20242;-80
2022/12/06 12:16:40;;;;;;;4.47;1.10;;;18.90;99.90;;;;;;5066481;28;20641;-82
2022/12/06 12:19:32;;;;;;;4.50;0.80;;;18.90;99.90;;;;;;5069917;28;20193;-82
2022/12/06 12:22:22;;;;;;;7.53;1.15;;;18.90;99.90;;;;;;5067852;28;20189;-82
2022/12/06 12:24:55;;;;;;;4.15;1.00;;;18.90;99.90;;;;;;5065050;28;20193;-83
2022/12/06 12:27:43;;;;;;;4.25;0.90;;;18.90;99.90;;;;;;5065046;28;20192;-83
2022/12/06 12:30:32;;;;;;;7.22;1.02;;;18.90;99.90;;;;;;5064697;28;20224;-81
2022/12/06 12:33:29;;;;;;;2.85;0.70;;;19.00;99.90;;;;;;5063645;28;20189;-82
2022/12/06 12:36:17;;;;;;;3.40;0.98;;;19.00;99.90;;;;;;5072258;28;20250;-83
2022/12/06 12:38:59;;;;;;;5.75;1.05;;;19.00;99.90;;;;;;5067243;28;20818;-82
2022/12/06 12:41:37;;;;;;;5.97;1.20;;;18.90;99.90;;;;;;5065432;28;20199;-81
2022/12/06 12:44:15;;;;;;;4.18;0.90;;;18.90;99.90;;;;;;5070234;28;20311;-83
2022/12/06 12:46:48;;;;;;;6.13;0.93;;;18.90;99.90;;;;;;5067309;28;20386;-83
2022/12/06 12:49:30;;;;;;;7.50;1.35;;;18.90;99.90;;;;;;5072176;28;20210;-83
2022/12/06 12:52:02;;;;;;;3.67;0.80;;;18.80;99.90;;;;;;5069919;28;20197;-82
2022/12/06 12:54:37;;;;;;;3.22;0.82;;;18.80;99.90;;;;;;5066298;28;20193;-82
2022/12/06 12:57:14;;;;;;;6.93;1.05;;;18.70;99.90;;;;;;5069742;28;20192;-82
2022/12/06 12:59:46;;;;;;;8.80;1.25;;;18.70;99.90;;;;;;5067893;28;20555;-82
2022/12/06 13:02:25;;;;;;;5.32;1.00;;;18.70;99.90;;;;;;5070170;28;20197;-81
2022/12/06 13:05:01;;;;;;;7.35;1.15;;;18.60;99.90;;;;;;5070064;28;20192;-81
2022/12/06 13:07:36;;;;;;;5.40;0.90;;;18.60;99.90;;;;;;5061880;28;20185;-81
2022/12/06 13:10:14;;;;;;;7.53;0.98;;;18.60;99.90;;;;;;5071450;28;20230;-82
2022/12/06 13:12:48;;;;;;;4.82;1.00;;;18.50;99.90;;;;;;5061964;28;20200;-81
2022/12/06 13:15:21;;;;;;;3.90;1.00;;;18.50;99.90;;;;;;5071120;28;20228;-81
2022/12/06 13:17:56;;;;;;;7.30;1.10;;;18.40;99.90;;;;;;5071303;28;20208;-81
2022/12/06 13:20:30;;;;;;;4.55;1.00;;;18.40;99.90;;;;;;5069041;28;20233;-81
2022/12/06 13:23:05;;;;;;;5.38;0.80;;;18.40;99.90;;;;;;5072021;28;20196;-82
2022/12/06 13:25:38;;;;;;;6.10;1.00;;;18.30;99.90;;;;;;5068623;28;20184;-81
2022/12/06 13:28:14;;;;;;;3.30;0.70;;;18.30;99.90;;;;;;5065428;28;20181;-82
2022/12/06 13:30:45;;;;;;;2.65;0.80;;;18.30;99.90;;;;;;5069472;28;20208;-81
2022/12/06 13:33:20;;;;;;;6.90;0.90;;;18.30;99.90;;;;;;5068453;28;20182;-81
2022/12/06 13:36:01;;;;;;;8.23;0.93;;;18.20;99.90;;;;;;5067851;28;20203;-81
2022/12/06 13:38:34;;;;;;;4.30;0.90;;;18.20;99.90;;;;;;5068680;28;20196;-81
2022/12/06 13:41:07;;;;;;;5.80;1.00;;;18.10;99.90;;;;;;5063663;28;20189;-81
2022/12/06 13:43:58;;;;;;;6.18;0.82;;;18.10;99.90;;;;;;5071751;28;20199;-81
2022/12/06 13:46:34;;;;;;;5.22;0.93;;;18.10;99.90;;;;;;5063729;28;20204;-81
2022/12/06 13:49:07;;;;;;;6.82;1.25;;;18.10;99.90;;;;;;5067719;28;20272;-81
2022/12/06 13:51:51;;;;;;;4.05;1.00;;;18.10;99.90;;;;;;5068959;28;20181;-81
2022/12/06 13:54:34;;;;;;;6.25;0.85;;;18.10;99.90;;;;;;5068009;28;20189;-81